sensor_id;sensor_type;location;lat;lon;timestamp;temperature;humidity
7876;DHT22;69649;53.712;9.680;2023-04-25T00:00:35;7.30;72.50
7876;DHT22;69649;53.712;9.680;2023-04-25T00:03:01;7.20;72.50
7876;DHT22;69649;53.712;9.680;2023-04-25T00:05:27;7.20;72.90
7876;DHT22;69649;53.712;9.680;2023-04-25T00:07:54;7.20;72.30
7876;DHT22;69649;53.712;9.680;2023-04-25T00:10:20;7.20;72.30
7876;DHT22;69649;53.712;9.680;2023-04-25T00:12:46;7.20;72.10
7876;DHT22;69649;53.712;9.680;2023-04-25T00:15:13;7.20;72.30
7876;DHT22;69649;53.712;9.680;2023-04-25T00:17:38;7.20;72.30
7876;DHT22;69649;53.712;9.680;2023-04-25T00:20:05;7.20;72.10
7876;DHT22;69649;53.712;9.680;2023-04-25T00:22:53;7.20;72.20
7876;DHT22;69649;53.712;9.680;2023-04-25T00:25:19;7.20;71.20
7876;DHT22;69649;53.712;9.680;2023-04-25T00:27:45;7.00;71.10
7876;DHT22;69649;53.712;9.680;2023-04-25T00:30:11;7.00;71.30
7876;DHT22;69649;53.712;9.680;2023-04-25T00:32:37;7.00;71.40
7876;DHT22;69649;53.712;9.680;2023-04-25T00:35:04;7.00;71.30
7876;DHT22;69649;53.712;9.680;2023-04-25T00:37:30;7.00;70.50
7876;DHT22;69649;53.712;9.680;2023-04-25T00:39:57;7.00;71.00
7876;DHT22;69649;53.712;9.680;2023-04-25T00:42:24;6.90;70.90
7876;DHT22;69649;53.712;9.680;2023-04-25T00:44:52;6.90;70.30
7876;DHT22;69649;53.712;9.680;2023-04-25T00:47:18;6.90;70.70
7876;DHT22;69649;53.712;9.680;2023-04-25T00:49:44;6.90;70.70
7876;DHT22;69649;53.712;9.680;2023-04-25T00:52:10;6.80;70.00
7876;DHT22;69649;53.712;9.680;2023-04-25T00:54:37;6.80;70.70
7876;DHT22;69649;53.712;9.680;2023-04-25T00:57:03;6.90;70.70
7876;DHT22;69649;53.712;9.680;2023-04-25T00:59:30;6.80;70.10
7876;DHT22;69649;53.712;9.680;2023-04-25T01:01:56;6.70;70.50
7876;DHT22;69649;53.712;9.680;2023-04-25T01:04:22;6.70;70.50
7876;DHT22;69649;53.712;9.680;2023-04-25T01:06:49;6.70;69.80
7876;DHT22;69649;53.712;9.680;2023-04-25T01:09:15;6.60;70.60
7876;DHT22;69649;53.712;9.680;2023-04-25T01:11:41;6.70;69.70
7876;DHT22;69649;53.712;9.680;2023-04-25T01:14:07;6.70;68.80
7876;DHT22;69649;53.712;9.680;2023-04-25T01:16:33;6.70;68.70
7876;DHT22;69649;53.712;9.680;2023-04-25T01:18:59;6.70;68.40
7876;DHT22;69649;53.712;9.680;2023-04-25T01:21:25;6.60;68.10
7876;DHT22;69649;53.712;9.680;2023-04-25T01:26:41;6.60;67.10
7876;DHT22;69649;53.712;9.680;2023-04-25T01:29:10;6.50;66.60
7876;DHT22;69649;53.712;9.680;2023-04-25T01:31:36;6.50;65.60
7876;DHT22;69649;53.712;9.680;2023-04-25T01:34:02;6.40;65.90
7876;DHT22;69649;53.712;9.680;2023-04-25T01:36:28;6.40;66.10
7876;DHT22;69649;53.712;9.680;2023-04-25T01:38:54;6.40;65.70
7876;DHT22;69649;53.712;9.680;2023-04-25T01:41:20;6.40;65.90
7876;DHT22;69649;53.712;9.680;2023-04-25T01:43:48;6.40;66.10
7876;DHT22;69649;53.712;9.680;2023-04-25T01:46:14;6.40;65.90
7876;DHT22;69649;53.712;9.680;2023-04-25T01:48:40;6.40;66.40
7876;DHT22;69649;53.712;9.680;2023-04-25T01:51:06;6.40;66.50
7876;DHT22;69649;53.712;9.680;2023-04-25T01:53:32;6.30;66.10
7876;DHT22;69649;53.712;9.680;2023-04-25T01:55:58;6.30;66.20
7876;DHT22;69649;53.712;9.680;2023-04-25T01:58:23;6.30;66.20
7876;DHT22;69649;53.712;9.680;2023-04-25T02:00:49;6.30;66.30
7876;DHT22;69649;53.712;9.680;2023-04-25T02:03:15;6.30;66.30
7876;DHT22;69649;53.712;9.680;2023-04-25T02:05:41;6.30;66.10
7876;DHT22;69649;53.712;9.680;2023-04-25T02:08:08;6.40;65.80
7876;DHT22;69649;53.712;9.680;2023-04-25T02:10:35;6.30;64.70
7876;DHT22;69649;53.712;9.680;2023-04-25T02:13:01;6.30;65.70
7876;DHT22;69649;53.712;9.680;2023-04-25T02:15:27;6.30;65.40
7876;DHT22;69649;53.712;9.680;2023-04-25T02:17:52;6.30;65.20
7876;DHT22;69649;53.712;9.680;2023-04-25T02:20:21;6.30;65.50
7876;DHT22;69649;53.712;9.680;2023-04-25T02:22:47;6.30;65.30
7876;DHT22;69649;53.712;9.680;2023-04-25T02:25:13;6.20;64.70
7876;DHT22;69649;53.712;9.680;2023-04-25T02:27:39;6.20;65.20
7876;DHT22;69649;53.712;9.680;2023-04-25T02:30:05;6.20;65.10
7876;DHT22;69649;53.712;9.680;2023-04-25T02:32:32;6.20;64.90
7876;DHT22;69649;53.712;9.680;2023-04-25T02:35:00;6.20;65.30
7876;DHT22;69649;53.712;9.680;2023-04-25T02:37:28;6.10;65.20
7876;DHT22;69649;53.712;9.680;2023-04-25T02:39:53;6.10;65.00
7876;DHT22;69649;53.712;9.680;2023-04-25T02:42:19;6.10;65.00
7876;DHT22;69649;53.712;9.680;2023-04-25T02:44:45;6.10;65.00
7876;DHT22;69649;53.712;9.680;2023-04-25T02:47:11;6.00;64.90
7876;DHT22;69649;53.712;9.680;2023-04-25T02:49:36;6.00;64.60
7876;DHT22;69649;53.712;9.680;2023-04-25T02:52:02;6.00;64.40
7876;DHT22;69649;53.712;9.680;2023-04-25T02:54:28;6.00;64.10
7876;DHT22;69649;53.712;9.680;2023-04-25T02:56:54;5.90;63.60
7876;DHT22;69649;53.712;9.680;2023-04-25T02:59:20;5.90;63.80
7876;DHT22;69649;53.712;9.680;2023-04-25T03:01:45;5.80;63.20
7876;DHT22;69649;53.712;9.680;2023-04-25T03:04:11;5.80;63.10
7876;DHT22;69649;53.712;9.680;2023-04-25T03:06:37;5.80;63.10
7876;DHT22;69649;53.712;9.680;2023-04-25T03:09:03;5.80;62.90
7876;DHT22;69649;53.712;9.680;2023-04-25T03:11:29;5.70;62.90
7876;DHT22;69649;53.712;9.680;2023-04-25T03:13:55;5.60;62.80
7876;DHT22;69649;53.712;9.680;2023-04-25T03:16:21;5.60;62.70
7876;DHT22;69649;53.712;9.680;2023-04-25T03:18:47;5.60;63.50
7876;DHT22;69649;53.712;9.680;2023-04-25T03:21:15;5.50;62.20
7876;DHT22;69649;53.712;9.680;2023-04-25T03:23:40;5.50;62.20
7876;DHT22;69649;53.712;9.680;2023-04-25T03:26:06;5.40;62.50
7876;DHT22;69649;53.712;9.680;2023-04-25T03:28:32;5.50;63.30
7876;DHT22;69649;53.712;9.680;2023-04-25T03:30:57;5.40;62.70
7876;DHT22;69649;53.712;9.680;2023-04-25T03:33:23;5.40;62.20
7876;DHT22;69649;53.712;9.680;2023-04-25T03:35:49;5.30;62.40
7876;DHT22;69649;53.712;9.680;2023-04-25T03:38:15;5.10;61.60
7876;DHT22;69649;53.712;9.680;2023-04-25T03:40:41;5.20;62.50
7876;DHT22;69649;53.712;9.680;2023-04-25T03:43:07;5.20;62.20
7876;DHT22;69649;53.712;9.680;2023-04-25T03:45:32;5.20;62.20
7876;DHT22;69649;53.712;9.680;2023-04-25T03:47:58;5.20;62.50
7876;DHT22;69649;53.712;9.680;2023-04-25T03:50:24;5.30;62.00
7876;DHT22;69649;53.712;9.680;2023-04-25T03:52:50;5.30;62.00
7876;DHT22;69649;53.712;9.680;2023-04-25T03:55:16;5.30;62.70
7876;DHT22;69649;53.712;9.680;2023-04-25T03:57:41;5.20;62.10
7876;DHT22;69649;53.712;9.680;2023-04-25T04:00:08;5.10;62.80
7876;DHT22;69649;53.712;9.680;2023-04-25T04:02:35;5.30;62.70
7876;DHT22;69649;53.712;9.680;2023-04-25T04:05:03;5.20;62.50
7876;DHT22;69649;53.712;9.680;2023-04-25T04:07:29;5.20;62.60
7876;DHT22;69649;53.712;9.680;2023-04-25T04:09:57;5.20;62.90
7876;DHT22;69649;53.712;9.680;2023-04-25T04:12:23;5.10;60.70
7876;DHT22;69649;53.712;9.680;2023-04-25T04:14:49;5.20;61.10
7876;DHT22;69649;53.712;9.680;2023-04-25T04:17:14;5.20;60.50
7876;DHT22;69649;53.712;9.680;2023-04-25T04:19:40;5.10;60.70
7876;DHT22;69649;53.712;9.680;2023-04-25T04:22:07;5.30;60.50
7876;DHT22;69649;53.712;9.680;2023-04-25T04:24:33;5.30;60.00
7876;DHT22;69649;53.712;9.680;2023-04-25T04:26:58;5.40;60.70
7876;DHT22;69649;53.712;9.680;2023-04-25T04:29:24;5.50;60.90
7876;DHT22;69649;53.712;9.680;2023-04-25T04:31:51;5.50;60.00
7876;DHT22;69649;53.712;9.680;2023-04-25T04:37:07;5.50;60.50
7876;DHT22;69649;53.712;9.680;2023-04-25T04:39:33;5.70;69.90
7876;DHT22;69649;53.712;9.680;2023-04-25T04:41:59;6.70;64.40
7876;DHT22;69649;53.712;9.680;2023-04-25T04:44:27;6.50;60.20
7876;DHT22;69649;53.712;9.680;2023-04-25T04:46:54;6.30;59.90
7876;DHT22;69649;53.712;9.680;2023-04-25T04:49:20;5.70;63.10
7876;DHT22;69649;53.712;9.680;2023-04-25T04:51:46;5.20;67.10
7876;DHT22;69649;53.712;9.680;2023-04-25T04:54:13;4.90;69.20
7876;DHT22;69649;53.712;9.680;2023-04-25T04:56:39;4.70;70.50
7876;DHT22;69649;53.712;9.680;2023-04-25T04:59:04;4.60;71.10
7876;DHT22;69649;53.712;9.680;2023-04-25T05:01:30;4.60;71.80
7876;DHT22;69649;53.712;9.680;2023-04-25T05:03:56;4.60;71.70
7876;DHT22;69649;53.712;9.680;2023-04-25T05:06:27;4.50;72.30
7876;DHT22;69649;53.712;9.680;2023-04-25T05:08:55;4.50;72.90
7876;DHT22;69649;53.712;9.680;2023-04-25T05:11:22;4.50;73.00
7876;DHT22;69649;53.712;9.680;2023-04-25T05:13:49;4.70;72.30
7876;DHT22;69649;53.712;9.680;2023-04-25T05:16:15;4.50;72.70
7876;DHT22;69649;53.712;9.680;2023-04-25T05:18:41;4.60;72.60
7876;DHT22;69649;53.712;9.680;2023-04-25T05:21:07;4.60;72.90
7876;DHT22;69649;53.712;9.680;2023-04-25T05:23:33;4.70;72.60
7876;DHT22;69649;53.712;9.680;2023-04-25T05:25:59;4.70;72.30
7876;DHT22;69649;53.712;9.680;2023-04-25T05:28:25;5.00;72.20
7876;DHT22;69649;53.712;9.680;2023-04-25T05:30:51;5.10;71.90
7876;DHT22;69649;53.712;9.680;2023-04-25T05:33:18;5.10;71.10
7876;DHT22;69649;53.712;9.680;2023-04-25T05:35:43;5.30;71.20
7876;DHT22;69649;53.712;9.680;2023-04-25T05:38:10;5.30;70.90
7876;DHT22;69649;53.712;9.680;2023-04-25T05:40:36;5.30;70.50
7876;DHT22;69649;53.712;9.680;2023-04-25T05:43:01;5.40;70.60
7876;DHT22;69649;53.712;9.680;2023-04-25T05:45:27;5.40;70.30
7876;DHT22;69649;53.712;9.680;2023-04-25T05:47:53;5.60;70.70
7876;DHT22;69649;53.712;9.680;2023-04-25T05:50:19;5.70;69.20
7876;DHT22;69649;53.712;9.680;2023-04-25T05:52:44;5.70;69.30
7876;DHT22;69649;53.712;9.680;2023-04-25T05:55:10;5.70;68.60
7876;DHT22;69649;53.712;9.680;2023-04-25T05:57:36;5.70;68.00
7876;DHT22;69649;53.712;9.680;2023-04-25T06:00:02;5.80;67.60
7876;DHT22;69649;53.712;9.680;2023-04-25T06:02:29;5.70;66.90
7876;DHT22;69649;53.712;9.680;2023-04-25T06:04:55;5.70;66.30
7876;DHT22;69649;53.712;9.680;2023-04-25T06:07:21;5.70;65.70
7876;DHT22;69649;53.712;9.680;2023-04-25T06:09:46;5.70;66.50
7876;DHT22;69649;53.712;9.680;2023-04-25T06:12:13;5.70;66.30
7876;DHT22;69649;53.712;9.680;2023-04-25T06:14:38;5.60;66.30
7876;DHT22;69649;53.712;9.680;2023-04-25T06:17:04;5.50;66.80
7876;DHT22;69649;53.712;9.680;2023-04-25T06:19:35;5.60;67.40
7876;DHT22;69649;53.712;9.680;2023-04-25T06:22:01;5.60;68.00
7876;DHT22;69649;53.712;9.680;2023-04-25T06:24:28;5.70;67.90
7876;DHT22;69649;53.712;9.680;2023-04-25T06:26:54;5.80;68.00
7876;DHT22;69649;53.712;9.680;2023-04-25T06:29:20;5.80;67.90
7876;DHT22;69649;53.712;9.680;2023-04-25T06:31:46;5.90;67.80
7876;DHT22;69649;53.712;9.680;2023-04-25T06:34:12;6.00;66.60
7876;DHT22;69649;53.712;9.680;2023-04-25T06:36:38;6.10;67.50
7876;DHT22;69649;53.712;9.680;2023-04-25T06:39:03;6.20;67.30
7876;DHT22;69649;53.712;9.680;2023-04-25T06:41:29;6.30;66.70
7876;DHT22;69649;53.712;9.680;2023-04-25T06:43:55;6.40;67.00
7876;DHT22;69649;53.712;9.680;2023-04-25T06:46:21;6.60;66.30
7876;DHT22;69649;53.712;9.680;2023-04-25T06:48:46;6.70;65.40
7876;DHT22;69649;53.712;9.680;2023-04-25T06:51:12;6.60;64.80
7876;DHT22;69649;53.712;9.680;2023-04-25T06:53:39;6.20;65.60
7876;DHT22;69649;53.712;9.680;2023-04-25T06:56:05;6.00;65.90
7876;DHT22;69649;53.712;9.680;2023-04-25T06:58:31;6.00;66.20
7876;DHT22;69649;53.712;9.680;2023-04-25T07:00:57;5.90;64.90
7876;DHT22;69649;53.712;9.680;2023-04-25T07:03:23;5.80;65.80
7876;DHT22;69649;53.712;9.680;2023-04-25T07:05:50;5.90;65.30
7876;DHT22;69649;53.712;9.680;2023-04-25T07:08:16;6.00;65.30
7876;DHT22;69649;53.712;9.680;2023-04-25T07:10:42;6.10;65.30
7876;DHT22;69649;53.712;9.680;2023-04-25T07:13:08;6.10;65.40
7876;DHT22;69649;53.712;9.680;2023-04-25T07:15:34;6.20;65.90
7876;DHT22;69649;53.712;9.680;2023-04-25T07:18:00;6.30;66.10
7876;DHT22;69649;53.712;9.680;2023-04-25T07:20:26;6.30;65.90
7876;DHT22;69649;53.712;9.680;2023-04-25T07:22:53;6.40;66.10
7876;DHT22;69649;53.712;9.680;2023-04-25T07:25:20;6.50;66.30
7876;DHT22;69649;53.712;9.680;2023-04-25T07:27:46;6.60;65.80
7876;DHT22;69649;53.712;9.680;2023-04-25T07:30:12;6.70;65.50
7876;DHT22;69649;53.712;9.680;2023-04-25T07:32:38;6.80;65.80
7876;DHT22;69649;53.712;9.680;2023-04-25T07:35:05;7.00;65.30
7876;DHT22;69649;53.712;9.680;2023-04-25T07:39:52;7.00;65.50
7876;DHT22;69649;53.712;9.680;2023-04-25T07:42:18;7.00;65.10
7876;DHT22;69649;53.712;9.680;2023-04-25T07:44:43;7.20;65.00
7876;DHT22;69649;53.712;9.680;2023-04-25T07:47:09;7.20;65.50
7876;DHT22;69649;53.712;9.680;2023-04-25T07:49:36;7.00;67.00
7876;DHT22;69649;53.712;9.680;2023-04-25T07:52:04;6.90;68.00
7876;DHT22;69649;53.712;9.680;2023-04-25T07:54:31;6.80;68.20
7876;DHT22;69649;53.712;9.680;2023-04-25T07:56:58;6.60;68.70
7876;DHT22;69649;53.712;9.680;2023-04-25T07:59:24;6.50;69.00
7876;DHT22;69649;53.712;9.680;2023-04-25T08:01:50;6.10;68.40
7876;DHT22;69649;53.712;9.680;2023-04-25T08:04:16;6.00;69.30
7876;DHT22;69649;53.712;9.680;2023-04-25T08:06:42;6.00;69.00
7876;DHT22;69649;53.712;9.680;2023-04-25T08:09:09;6.00;69.40
7876;DHT22;69649;53.712;9.680;2023-04-25T08:11:35;6.20;69.10
7876;DHT22;69649;53.712;9.680;2023-04-25T08:14:01;6.40;69.40
7876;DHT22;69649;53.712;9.680;2023-04-25T08:16:28;6.60;67.80
7876;DHT22;69649;53.712;9.680;2023-04-25T08:18:54;6.90;67.20
7876;DHT22;69649;53.712;9.680;2023-04-25T08:21:20;7.00;63.90
7876;DHT22;69649;53.712;9.680;2023-04-25T08:23:45;7.00;64.60
7876;DHT22;69649;53.712;9.680;2023-04-25T08:26:11;7.00;64.50
7876;DHT22;69649;53.712;9.680;2023-04-25T08:28:37;7.20;65.70
7876;DHT22;69649;53.712;9.680;2023-04-25T08:31:03;7.50;65.20
7876;DHT22;69649;53.712;9.680;2023-04-25T08:33:29;7.70;64.00
7876;DHT22;69649;53.712;9.680;2023-04-25T08:35:55;8.00;63.00
7876;DHT22;69649;53.712;9.680;2023-04-25T08:38:21;8.10;60.40
7876;DHT22;69649;53.712;9.680;2023-04-25T08:40:49;8.10;59.50
7876;DHT22;69649;53.712;9.680;2023-04-25T08:43:19;8.30;59.90
7876;DHT22;69649;53.712;9.680;2023-04-25T08:45:45;8.40;59.70
7876;DHT22;69649;53.712;9.680;2023-04-25T08:48:13;8.30;60.50
7876;DHT22;69649;53.712;9.680;2023-04-25T08:53:16;8.40;61.80
7876;DHT22;69649;53.712;9.680;2023-04-25T08:55:45;8.40;61.60
7876;DHT22;69649;53.712;9.680;2023-04-25T08:58:13;8.30;61.10
7876;DHT22;69649;53.712;9.680;2023-04-25T09:00:39;8.20;61.20
7876;DHT22;69649;53.712;9.680;2023-04-25T09:03:05;8.30;57.50
7876;DHT22;69649;53.712;9.680;2023-04-25T09:05:32;8.00;57.30
7876;DHT22;69649;53.712;9.680;2023-04-25T09:07:58;8.10;57.40
7876;DHT22;69649;53.712;9.680;2023-04-25T09:10:26;8.20;57.60
7876;DHT22;69649;53.712;9.680;2023-04-25T09:13:13;8.10;58.10
7876;DHT22;69649;53.712;9.680;2023-04-25T09:15:48;7.50;61.90
7876;DHT22;69649;53.712;9.680;2023-04-25T09:20:56;6.60;64.80
7876;DHT22;69649;53.712;9.680;2023-04-25T09:23:22;6.20;66.20
7876;DHT22;69649;53.712;9.680;2023-04-25T09:25:50;6.30;66.30
7876;DHT22;69649;53.712;9.680;2023-04-25T09:28:22;6.70;66.60
7876;DHT22;69649;53.712;9.680;2023-04-25T09:30:46;7.00;67.10
7876;DHT22;69649;53.712;9.680;2023-04-25T09:33:12;7.50;64.80
7876;DHT22;69649;53.712;9.680;2023-04-25T09:35:39;7.80;63.30
7876;DHT22;69649;53.712;9.680;2023-04-25T09:38:11;8.00;63.00
7876;DHT22;69649;53.712;9.680;2023-04-25T09:40:40;8.00;61.20
7876;DHT22;69649;53.712;9.680;2023-04-25T09:43:10;8.00;61.00
7876;DHT22;69649;53.712;9.680;2023-04-25T09:45:42;8.00;62.10
7876;DHT22;69649;53.712;9.680;2023-04-25T09:48:10;8.10;60.30
7876;DHT22;69649;53.712;9.680;2023-04-25T09:50:36;8.00;58.20
7876;DHT22;69649;53.712;9.680;2023-04-25T09:53:05;8.20;57.40
7876;DHT22;69649;53.712;9.680;2023-04-25T09:55:34;8.40;58.10
7876;DHT22;69649;53.712;9.680;2023-04-25T09:58:06;8.30;58.60
7876;DHT22;69649;53.712;9.680;2023-04-25T10:00:32;8.30;59.20
7876;DHT22;69649;53.712;9.680;2023-04-25T10:03:00;8.50;59.50
7876;DHT22;69649;53.712;9.680;2023-04-25T10:05:30;8.80;59.80
7876;DHT22;69649;53.712;9.680;2023-04-25T10:07:59;8.60;58.00
7876;DHT22;69649;53.712;9.680;2023-04-25T10:10:26;8.60;59.40
7876;DHT22;69649;53.712;9.680;2023-04-25T10:12:54;8.70;59.00
7876;DHT22;69649;53.712;9.680;2023-04-25T10:15:21;8.90;58.10
7876;DHT22;69649;53.712;9.680;2023-04-25T10:17:49;9.00;58.70
7876;DHT22;69649;53.712;9.680;2023-04-25T10:20:15;9.20;58.90
7876;DHT22;69649;53.712;9.680;2023-04-25T10:22:42;9.20;57.50
7876;DHT22;69649;53.712;9.680;2023-04-25T10:25:10;9.70;57.20
7876;DHT22;69649;53.712;9.680;2023-04-25T10:27:36;9.80;54.80
7876;DHT22;69649;53.712;9.680;2023-04-25T10:30:07;10.20;56.10
7876;DHT22;69649;53.712;9.680;2023-04-25T10:32:32;10.00;55.50
7876;DHT22;69649;53.712;9.680;2023-04-25T10:35:14;9.30;54.60
7876;DHT22;69649;53.712;9.680;2023-04-25T10:38:02;9.20;55.40
7876;DHT22;69649;53.712;9.680;2023-04-25T10:40:28;9.50;55.30
7876;DHT22;69649;53.712;9.680;2023-04-25T10:42:54;10.00;54.40
7876;DHT22;69649;53.712;9.680;2023-04-25T10:45:21;9.80;52.90
7876;DHT22;69649;53.712;9.680;2023-04-25T10:47:48;9.00;55.50
7876;DHT22;69649;53.712;9.680;2023-04-25T10:50:14;8.50;57.80
7876;DHT22;69649;53.712;9.680;2023-04-25T10:52:43;8.00;60.70
7876;DHT22;69649;53.712;9.680;2023-04-25T10:55:10;7.70;61.40
7876;DHT22;69649;53.712;9.680;2023-04-25T10:57:44;7.50;61.20
7876;DHT22;69649;53.712;9.680;2023-04-25T11:00:19;7.30;61.70
7876;DHT22;69649;53.712;9.680;2023-04-25T11:02:50;7.40;61.90
7876;DHT22;69649;53.712;9.680;2023-04-25T11:05:29;7.50;62.00
7876;DHT22;69649;53.712;9.680;2023-04-25T11:07:54;7.80;61.50
7876;DHT22;69649;53.712;9.680;2023-04-25T11:10:30;8.00;62.20
7876;DHT22;69649;53.712;9.680;2023-04-25T11:12:58;8.10;59.90
7876;DHT22;69649;53.712;9.680;2023-04-25T11:15:25;8.40;60.40
7876;DHT22;69649;53.712;9.680;2023-04-25T11:17:52;8.60;58.50
7876;DHT22;69649;53.712;9.680;2023-04-25T11:20:18;9.20;57.20
7876;DHT22;69649;53.712;9.680;2023-04-25T11:22:46;9.60;56.60
7876;DHT22;69649;53.712;9.680;2023-04-25T11:25:13;10.10;54.70
7876;DHT22;69649;53.712;9.680;2023-04-25T11:27:55;10.40;53.70
7876;DHT22;69649;53.712;9.680;2023-04-25T11:30:24;10.40;52.20
7876;DHT22;69649;53.712;9.680;2023-04-25T11:32:50;10.00;54.00
7876;DHT22;69649;53.712;9.680;2023-04-25T11:35:19;10.10;52.70
7876;DHT22;69649;53.712;9.680;2023-04-25T11:37:45;10.20;53.20
7876;DHT22;69649;53.712;9.680;2023-04-25T11:40:11;10.60;52.30
7876;DHT22;69649;53.712;9.680;2023-04-25T11:42:38;11.00;51.20
7876;DHT22;69649;53.712;9.680;2023-04-25T11:45:05;10.90;51.00
7876;DHT22;69649;53.712;9.680;2023-04-25T11:47:32;10.60;52.00
7876;DHT22;69649;53.712;9.680;2023-04-25T11:49:59;10.10;53.50
7876;DHT22;69649;53.712;9.680;2023-04-25T11:52:40;10.10;53.70
7876;DHT22;69649;53.712;9.680;2023-04-25T11:55:14;10.40;53.50
7876;DHT22;69649;53.712;9.680;2023-04-25T11:57:41;10.60;53.70
7876;DHT22;69649;53.712;9.680;2023-04-25T12:02:39;11.10;52.50
7876;DHT22;69649;53.712;9.680;2023-04-25T12:05:07;10.90;51.40
7876;DHT22;69649;53.712;9.680;2023-04-25T12:07:34;10.80;51.60
7876;DHT22;69649;53.712;9.680;2023-04-25T12:10:06;10.60;53.10
7876;DHT22;69649;53.712;9.680;2023-04-25T12:12:34;11.10;52.80
7876;DHT22;69649;53.712;9.680;2023-04-25T12:17:45;10.70;52.40
7876;DHT22;69649;53.712;9.680;2023-04-25T12:20:14;10.80;52.20
7876;DHT22;69649;53.712;9.680;2023-04-25T12:22:43;10.90;53.10
7876;DHT22;69649;53.712;9.680;2023-04-25T12:33:31;9.50;54.10
7876;DHT22;69649;53.712;9.680;2023-04-25T12:35:58;9.40;53.30
7876;DHT22;69649;53.712;9.680;2023-04-25T12:38:28;9.50;54.20
7876;DHT22;69649;53.712;9.680;2023-04-25T12:40:57;9.90;55.00
7876;DHT22;69649;53.712;9.680;2023-04-25T12:43:23;10.20;55.30
7876;DHT22;69649;53.712;9.680;2023-04-25T12:45:50;10.50;53.70
7876;DHT22;69649;53.712;9.680;2023-04-25T12:48:19;9.80;54.30
7876;DHT22;69649;53.712;9.680;2023-04-25T12:50:47;9.60;54.40
7876;DHT22;69649;53.712;9.680;2023-04-25T12:53:24;9.40;55.20
7876;DHT22;69649;53.712;9.680;2023-04-25T12:55:42;9.00;57.10
7876;DHT22;69649;53.712;9.680;2023-04-25T12:58:08;8.80;58.50
7876;DHT22;69649;53.712;9.680;2023-04-25T13:00:34;8.90;59.50
7876;DHT22;69649;53.712;9.680;2023-04-25T13:03:00;9.00;59.30
7876;DHT22;69649;53.712;9.680;2023-04-25T13:05:26;9.00;59.80
7876;DHT22;69649;53.712;9.680;2023-04-25T13:07:52;9.00;58.10
7876;DHT22;69649;53.712;9.680;2023-04-25T13:10:18;9.50;58.60
7876;DHT22;69649;53.712;9.680;2023-04-25T13:12:44;10.00;57.80
7876;DHT22;69649;53.712;9.680;2023-04-25T13:15:10;10.40;56.80
7876;DHT22;69649;53.712;9.680;2023-04-25T13:17:39;10.70;57.40
7876;DHT22;69649;53.712;9.680;2023-04-25T13:20:06;10.90;55.50
7876;DHT22;69649;53.712;9.680;2023-04-25T13:22:35;10.30;59.90
7876;DHT22;69649;53.712;9.680;2023-04-25T13:25:03;8.50;66.30
7876;DHT22;69649;53.712;9.680;2023-04-25T13:27:29;7.60;69.00
7876;DHT22;69649;53.712;9.680;2023-04-25T13:29:57;7.00;67.70
7876;DHT22;69649;53.712;9.680;2023-04-25T13:32:23;6.90;68.10
7876;DHT22;69649;53.712;9.680;2023-04-25T13:34:48;6.90;69.20
7876;DHT22;69649;53.712;9.680;2023-04-25T13:37:14;7.00;68.40
7876;DHT22;69649;53.712;9.680;2023-04-25T13:39:41;7.00;67.20
7876;DHT22;69649;53.712;9.680;2023-04-25T13:42:06;7.00;67.40
7876;DHT22;69649;53.712;9.680;2023-04-25T13:44:32;7.30;66.90
7876;DHT22;69649;53.712;9.680;2023-04-25T13:46:58;7.60;64.30
7876;DHT22;69649;53.712;9.680;2023-04-25T13:49:26;7.80;61.70
7876;DHT22;69649;53.712;9.680;2023-04-25T13:51:51;8.00;61.80
7876;DHT22;69649;53.712;9.680;2023-04-25T13:54:17;8.40;61.00
7876;DHT22;69649;53.712;9.680;2023-04-25T13:56:43;9.00;60.70
7876;DHT22;69649;53.712;9.680;2023-04-25T13:59:09;9.80;57.80
7876;DHT22;69649;53.712;9.680;2023-04-25T14:01:35;10.30;58.10
7876;DHT22;69649;53.712;9.680;2023-04-25T14:04:02;10.10;55.30
7876;DHT22;69649;53.712;9.680;2023-04-25T14:06:31;9.60;56.50
7876;DHT22;69649;53.712;9.680;2023-04-25T14:08:57;9.70;54.90
7876;DHT22;69649;53.712;9.680;2023-04-25T14:11:23;9.70;55.70
7876;DHT22;69649;53.712;9.680;2023-04-25T14:13:48;10.20;55.70
7876;DHT22;69649;53.712;9.680;2023-04-25T14:16:15;9.90;53.70
7876;DHT22;69649;53.712;9.680;2023-04-25T14:18:41;9.80;53.00
7876;DHT22;69649;53.712;9.680;2023-04-25T14:21:07;9.60;53.40
7876;DHT22;69649;53.712;9.680;2023-04-25T14:23:33;9.50;53.70
7876;DHT22;69649;53.712;9.680;2023-04-25T14:25:59;9.20;55.00
7876;DHT22;69649;53.712;9.680;2023-04-25T14:28:25;9.80;55.10
7876;DHT22;69649;53.712;9.680;2023-04-25T14:30:51;10.60;51.90
7876;DHT22;69649;53.712;9.680;2023-04-25T14:33:16;10.60;51.50
7876;DHT22;69649;53.712;9.680;2023-04-25T14:35:42;10.00;52.50
7876;DHT22;69649;53.712;9.680;2023-04-25T14:38:08;9.70;54.00
7876;DHT22;69649;53.712;9.680;2023-04-25T14:40:34;9.00;55.20
7876;DHT22;69649;53.712;9.680;2023-04-25T14:43:00;8.10;57.90
7876;DHT22;69649;53.712;9.680;2023-04-25T14:45:25;7.80;59.40
7876;DHT22;69649;53.712;9.680;2023-04-25T14:47:51;7.80;59.60
7876;DHT22;69649;53.712;9.680;2023-04-25T14:50:18;8.00;58.90
7876;DHT22;69649;53.712;9.680;2023-04-25T14:52:43;8.00;59.70
7876;DHT22;69649;53.712;9.680;2023-04-25T14:55:10;8.00;58.00
7876;DHT22;69649;53.712;9.680;2023-04-25T14:57:36;8.10;57.50
7876;DHT22;69649;53.712;9.680;2023-04-25T15:00:03;9.20;56.60
7876;DHT22;69649;53.712;9.680;2023-04-25T15:02:31;10.70;53.20
7876;DHT22;69649;53.712;9.680;2023-04-25T15:04:57;12.00;57.40
7876;DHT22;69649;53.712;9.680;2023-04-25T15:07:23;12.00;50.70
7876;DHT22;69649;53.712;9.680;2023-04-25T15:09:49;10.90;51.80
7876;DHT22;69649;53.712;9.680;2023-04-25T15:12:15;10.10;53.50
7876;DHT22;69649;53.712;9.680;2023-04-25T15:14:40;9.80;55.30
7876;DHT22;69649;53.712;9.680;2023-04-25T15:17:06;11.10;53.30
7876;DHT22;69649;53.712;9.680;2023-04-25T15:19:32;12.10;51.40
7876;DHT22;69649;53.712;9.680;2023-04-25T15:21:58;13.30;48.90
7876;DHT22;69649;53.712;9.680;2023-04-25T15:24:26;13.00;48.50
7876;DHT22;69649;53.712;9.680;2023-04-25T15:26:52;12.00;48.40
7876;DHT22;69649;53.712;9.680;2023-04-25T15:29:18;11.10;49.50
7876;DHT22;69649;53.712;9.680;2023-04-25T15:31:44;10.70;50.60
7876;DHT22;69649;53.712;9.680;2023-04-25T15:34:10;11.10;49.60
7876;DHT22;69649;53.712;9.680;2023-04-25T15:36:36;10.90;50.10
7876;DHT22;69649;53.712;9.680;2023-04-25T15:39:02;10.10;51.40
7876;DHT22;69649;53.712;9.680;2023-04-25T15:41:28;9.50;52.80
7876;DHT22;69649;53.712;9.680;2023-04-25T15:43:54;9.20;53.90
7876;DHT22;69649;53.712;9.680;2023-04-25T15:46:20;9.10;54.30
7876;DHT22;69649;53.712;9.680;2023-04-25T15:48:48;8.80;54.10
7876;DHT22;69649;53.712;9.680;2023-04-25T15:51:14;8.70;54.60
7876;DHT22;69649;53.712;9.680;2023-04-25T15:53:41;8.70;55.50
7876;DHT22;69649;53.712;9.680;2023-04-25T15:56:07;8.70;56.80
7876;DHT22;69649;53.712;9.680;2023-04-25T15:58:33;9.40;56.20
7876;DHT22;69649;53.712;9.680;2023-04-25T16:00:58;10.50;54.20
7876;DHT22;69649;53.712;9.680;2023-04-25T16:03:24;11.00;52.50
7876;DHT22;69649;53.712;9.680;2023-04-25T16:05:50;11.10;52.80
7876;DHT22;69649;53.712;9.680;2023-04-25T16:08:16;11.80;51.20
7876;DHT22;69649;53.712;9.680;2023-04-25T16:10:42;12.20;50.80
7876;DHT22;69649;53.712;9.680;2023-04-25T16:13:08;12.50;50.00
7876;DHT22;69649;53.712;9.680;2023-04-25T16:15:34;12.40;49.90
7876;DHT22;69649;53.712;9.680;2023-04-25T16:18:00;11.10;51.00
7876;DHT22;69649;53.712;9.680;2023-04-25T16:20:26;10.80;51.60
7876;DHT22;69649;53.712;9.680;2023-04-25T16:22:51;10.20;51.90